createdAt,value
2019-04-28T00:01:55.901Z,100039.25
2019-04-28T00:04:26.515Z,100045.44
2019-04-28T00:06:57.606Z,100035.09
2019-04-28T00:09:31.248Z,100025.11
2019-04-28T00:12:02.510Z,100027.95
2019-04-28T00:14:33.136Z,100030.19
2019-04-28T00:17:04.425Z,100022.27
2019-04-28T00:19:34.975Z,100028.69
2019-04-28T00:22:27.781Z,100031.76
2019-04-28T00:25:21.469Z,100035.45
2019-04-28T00:27:52.767Z,100036.29
2019-04-28T00:30:26.895Z,100022.84
2019-04-28T00:32:57.755Z,100014.43
2019-04-28T00:35:28.582Z,100005.74
2019-04-28T00:37:59.395Z,100006.23
2019-04-28T00:40:31.634Z,100001.12
2019-04-28T00:43:03.433Z,99999.95
2019-04-28T00:45:33.940Z,99996.05
2019-04-28T00:48:04.720Z,99994.63
2019-04-28T00:50:35.372Z,99988.79
2019-04-28T00:53:06.088Z,99995.12
2019-04-28T00:55:36.835Z,100002.11
2019-04-28T00:58:07.692Z,100009.86
2019-04-28T01:00:41.416Z,100007.59
2019-04-28T01:03:12.222Z,100015.08
2019-04-28T01:05:42.742Z,100030.79
2019-04-28T01:08:13.174Z,100041.95
2019-04-28T01:10:43.534Z,100052.04
2019-04-28T01:13:13.853Z,100059.77
2019-04-28T01:16:02.309Z,100055.26
2019-04-28T01:19:03.933Z,100055.16
2019-04-28T01:21:51.977Z,100068.58
2019-04-28T01:24:23.280Z,100066.09
2019-04-28T01:26:55.433Z,100063.11
2019-04-28T01:29:25.850Z,100060.48
2019-04-28T01:32:15.442Z,100061.09
2019-04-28T01:34:45.851Z,100047.26
2019-04-28T01:37:16.308Z,100045.50
2019-04-28T01:39:46.879Z,100037.29
2019-04-28T01:42:17.209Z,100037.14
2019-04-28T01:44:49.504Z,100042.28
2019-04-28T01:47:20.531Z,100032.80
2019-04-28T01:49:51.041Z,100031.39
2019-04-28T01:52:21.498Z,100033.99
2019-04-28T01:54:52.037Z,100024.83
2019-04-28T01:57:22.577Z,100014.47
2019-04-28T01:59:53.235Z,100017.05
2019-04-28T02:02:24.207Z,100008.86
2019-04-28T02:04:54.850Z,99999.74
2019-04-28T02:07:25.714Z,99999.63
2019-04-28T02:09:56.433Z,99996.41
2019-04-28T02:12:27.143Z,100003.31
2019-04-28T02:15:00.911Z,99996.30
2019-04-28T02:17:31.617Z,100001.43
2019-04-28T02:20:02.211Z,100002.16
2019-04-28T02:22:44.457Z,100006.67
2019-04-28T02:25:16.916Z,99996.64
2019-04-28T02:27:47.516Z,100001.61
2019-04-28T02:30:20.281Z,99991.38
2019-04-28T02:32:51.902Z,99989.97
2019-04-28T02:35:22.890Z,99986.28
2019-04-28T02:37:54.215Z,99977.09
2019-04-28T02:40:24.916Z,99971.84
2019-04-28T02:42:55.556Z,99978.35
2019-04-28T02:45:26.368Z,99974.38
2019-04-28T02:48:01.125Z,99968.66
2019-04-28T02:50:41.788Z,99975.84
2019-04-28T02:53:20.876Z,99977.56
2019-04-28T02:55:51.447Z,99980.38
2019-04-28T02:58:22.671Z,99977.27
2019-04-28T03:01:06.729Z,99982.66
2019-04-28T03:03:25.875Z,99990.20
2019-04-28T03:05:56.601Z,99986.45
2019-04-28T03:08:27.259Z,99992.78
2019-04-28T03:11:00.618Z,99992.85
2019-04-28T03:13:31.127Z,99995.63
2019-04-28T03:16:02.331Z,99995.11
2019-04-28T03:18:33.206Z,100003.27
2019-04-28T03:21:04.596Z,100009.76
2019-04-28T03:23:35.584Z,100019.80
2019-04-28T03:26:24.841Z,100015.02
2019-04-28T03:29:04.507Z,100008.59
2019-04-28T03:32:15.934Z,100018.72
2019-04-28T03:34:43.547Z,100023.22
2019-04-28T03:37:14.242Z,100021.34
2019-04-28T03:39:54.115Z,100010.60
2019-04-28T03:42:24.817Z,100005.34
2019-04-28T03:44:57.174Z,100003.22
2019-04-28T03:47:30.852Z,100010.08
2019-04-28T03:50:00.574Z,100024.59
2019-04-28T03:52:31.906Z,100030.73
2019-04-28T03:55:02.912Z,100031.77
2019-04-28T03:57:33.621Z,100042.09
2019-04-28T04:00:05.489Z,100047.26
2019-04-28T04:02:35.988Z,100050.58
2019-04-28T04:05:06.954Z,100052.89
2019-04-28T04:07:42.580Z,100043.47
2019-04-28T04:10:16.985Z,100037.47
2019-04-28T04:12:52.333Z,100035.22
2019-04-28T04:15:54.178Z,100038.19
2019-04-28T04:18:31.063Z,100040.66
2019-04-28T04:21:02.042Z,100049.67
2019-04-28T04:23:32.834Z,100048.80
2019-04-28T04:26:03.857Z,100063.81
2019-04-28T04:28:34.472Z,100062.97
2019-04-28T04:31:05.886Z,100065.69
2019-04-28T04:33:36.370Z,100070.38
2019-04-28T04:36:07.107Z,100065.73
2019-04-28T04:38:40.151Z,100064.56
2019-04-28T04:41:11.373Z,100064.45
2019-04-28T04:43:42.042Z,100060.31
2019-04-28T04:46:16.826Z,100060.77
2019-04-28T04:48:50.568Z,100063.17
2019-04-28T04:51:21.529Z,100070.17
2019-04-28T04:53:52.879Z,100063.55
2019-04-28T04:56:23.713Z,100067.19
2019-04-28T04:58:54.608Z,100064.91
2019-04-28T05:01:50.385Z,100063.16
2019-04-28T05:04:29.603Z,100062.58
2019-04-28T05:06:59.957Z,100064.95
2019-04-28T05:09:31.217Z,100072.17
2019-04-28T05:12:02.182Z,100070.34
2019-04-28T05:14:32.819Z,100075.94
2019-04-28T05:17:03.715Z,100074.20
2019-04-28T05:19:34.582Z,100074.81
2019-04-28T05:22:05.638Z,100072.32
2019-04-28T05:24:46.271Z,100062.78
2019-04-28T05:27:17.350Z,100063.91
2019-04-28T05:29:51.189Z,100071.66
2019-04-28T05:32:20.821Z,100065.23
2019-04-28T05:34:52.954Z,100057.67
2019-04-28T05:37:23.672Z,100055.46
2019-04-28T05:39:54.457Z,100055.42
2019-04-28T05:42:25.266Z,100056.31
2019-04-28T05:44:59.803Z,100054.73
2019-04-28T05:47:31.692Z,100056.06
2019-04-28T05:50:21.412Z,100064.59
2019-04-28T05:53:00.752Z,100062.81
2019-04-28T05:55:50.162Z,100059.14
2019-04-28T05:58:30.260Z,100059.77
2019-04-28T06:01:20.410Z,100066.64
2019-04-28T06:03:51.022Z,100062.80
2019-04-28T06:06:23.457Z,100062.57
2019-04-28T06:09:16.018Z,100057.00
2019-04-28T06:11:46.684Z,100046.53
2019-04-28T06:14:17.232Z,100052.20
2019-04-28T06:16:48.079Z,100054.09
2019-04-28T06:19:20.205Z,100051.27
2019-04-28T06:21:50.874Z,100052.80
2019-04-28T06:24:21.572Z,100057.73
2019-04-28T06:26:52.400Z,100054.67
2019-04-28T06:29:24.113Z,100060.76
2019-04-28T06:31:55.053Z,100057.71
2019-04-28T06:34:26.756Z,100055.23
2019-04-28T06:36:58.294Z,100058.60
2019-04-28T06:39:30.724Z,100057.02
2019-04-28T06:42:02.223Z,100055.01
2019-04-28T06:44:32.838Z,100056.61
2019-04-28T06:47:03.724Z,100054.27
2019-04-28T06:49:34.391Z,100063.16
2019-04-28T06:52:05.253Z,100057.41
2019-04-28T06:54:38.877Z,100062.51
2019-04-28T06:57:10.528Z,100060.76
2019-04-28T06:59:41.715Z,100063.13
2019-04-28T07:02:12.542Z,100062.41
2019-04-28T07:05:01.193Z,100061.91
2019-04-28T07:07:22.538Z,100065.77
2019-04-28T07:09:53.238Z,100067.66
2019-04-28T07:12:23.761Z,100061.08
2019-04-28T07:14:55.451Z,100073.41
2019-04-28T07:17:26.226Z,100071.82
2019-04-28T07:20:08.050Z,100065.81
2019-04-28T07:22:38.817Z,100070.22
2019-04-28T07:25:09.709Z,100072.41
2019-04-28T07:27:40.661Z,100075.92
2019-04-28T07:30:11.617Z,100074.64
2019-04-28T07:32:43.428Z,100076.78
2019-04-28T07:35:14.225Z,100080.23
2019-04-28T07:37:46.012Z,100078.37
2019-04-28T07:40:17.365Z,100071.66
2019-04-28T07:42:48.055Z,100076.17
2019-04-28T07:45:18.940Z,100073.26
2019-04-28T07:47:49.989Z,100074.77
2019-04-28T07:50:24.952Z,100077.11
2019-04-28T07:53:01.874Z,100075.59
2019-04-28T07:55:32.830Z,100072.69
2019-04-28T07:58:03.706Z,100071.47
2019-04-28T08:00:34.858Z,100075.47
2019-04-28T08:03:05.641Z,100075.16
2019-04-28T08:05:36.510Z,100078.59
2019-04-28T08:08:07.504Z,100073.98
2019-04-28T08:10:38.539Z,100073.83
2019-04-28T08:13:09.430Z,100067.81
2019-04-28T08:15:40.221Z,100079.58
2019-04-28T08:18:10.799Z,100080.93
2019-04-28T08:20:41.365Z,100077.53
2019-04-28T08:23:13.623Z,100078.95
2019-04-28T08:25:44.751Z,100069.30
2019-04-28T08:28:15.726Z,100075.03
2019-04-28T08:30:47.649Z,100068.64
2019-04-28T08:33:37.330Z,100064.28
2019-04-28T08:36:08.055Z,100065.85
2019-04-28T08:38:38.743Z,100063.22
2019-04-28T08:41:09.630Z,100055.38
2019-04-28T08:43:40.541Z,100067.35
2019-04-28T08:46:11.412Z,100074.95
2019-04-28T08:48:42.312Z,100070.41
2019-04-28T08:51:13.007Z,100066.08
2019-04-28T08:53:43.921Z,100066.42
2019-04-28T08:56:14.682Z,100060.41
2019-04-28T08:58:45.512Z,100064.33
2019-04-28T09:01:16.121Z,100063.00
2019-04-28T09:03:46.579Z,100061.48
2019-04-28T09:06:17.275Z,100072.27
2019-04-28T09:08:47.785Z,100069.19
2019-04-28T09:11:18.645Z,100070.11
2019-04-28T09:13:52.461Z,100069.39
2019-04-28T09:16:22.995Z,100073.30
2019-04-28T09:18:53.701Z,100065.52
2019-04-28T09:21:24.401Z,100063.87
2019-04-28T09:23:56.606Z,100061.44
2019-04-28T09:26:27.571Z,100063.33
2019-04-28T09:28:59.342Z,100056.36
2019-04-28T09:31:30.168Z,100059.69
2019-04-28T09:34:00.940Z,100054.70
2019-04-28T09:36:32.114Z,100060.52
2019-04-28T09:39:06.412Z,100052.73
2019-04-28T09:42:15.819Z,100045.65
2019-04-28T09:44:46.676Z,100052.88
2019-04-28T09:47:17.352Z,100049.95
2019-04-28T09:49:48.253Z,100043.10
2019-04-28T09:52:19.528Z,100046.78
2019-04-28T09:54:51.166Z,100040.73
2019-04-28T09:57:21.915Z,100045.68
2019-04-28T09:59:52.534Z,100050.02
2019-04-28T10:02:23.254Z,100041.27
2019-04-28T10:04:53.924Z,100053.75
2019-04-28T10:07:24.529Z,100052.00
2019-04-28T10:09:55.515Z,100045.42
2019-04-28T10:12:27.480Z,100047.41
2019-04-28T10:14:58.686Z,100050.97
2019-04-28T10:17:30.171Z,100054.78
2019-04-28T10:20:00.983Z,100047.59
2019-04-28T10:22:31.713Z,100043.75
2019-04-28T10:25:02.882Z,100040.88
2019-04-28T10:27:33.600Z,100040.19
2019-04-28T10:30:04.795Z,100035.31
2019-04-28T10:32:36.435Z,100038.84
2019-04-28T10:35:07.630Z,100038.69
2019-04-28T10:37:38.338Z,100036.31
2019-04-28T10:40:19.094Z,100034.48
2019-04-28T10:42:49.578Z,100040.30
2019-04-28T10:45:23.340Z,100038.62
2019-04-28T10:47:54.132Z,100038.34
2019-04-28T10:50:25.164Z,100043.42
2019-04-28T10:52:56.087Z,100039.48
2019-04-28T10:55:26.590Z,100042.14
2019-04-28T10:57:57.570Z,100034.94
2019-04-28T11:00:30.641Z,100043.91
2019-04-28T11:03:01.379Z,100035.28
2019-04-28T11:05:39.422Z,100031.04
2019-04-28T11:08:18.040Z,100034.45
2019-04-28T11:10:48.684Z,100027.16
2019-04-28T11:13:19.430Z,100045.33
2019-04-28T11:15:51.251Z,100040.26
2019-04-28T11:18:21.979Z,100043.63
2019-04-28T11:20:52.730Z,100059.55
2019-04-28T11:23:23.401Z,100057.98
2019-04-28T11:25:54.165Z,100056.41
2019-04-28T11:28:24.743Z,100061.00
2019-04-28T11:30:55.699Z,100060.02
2019-04-28T11:34:01.383Z,100058.77
2019-04-28T11:36:31.966Z,100063.45
2019-04-28T11:39:03.251Z,100064.98
2019-04-28T11:41:33.997Z,100056.06
2019-04-28T11:44:04.943Z,100054.74
2019-04-28T11:46:35.547Z,100063.87
2019-04-28T11:49:06.341Z,100060.27
2019-04-28T11:51:37.336Z,100055.94
2019-04-28T11:54:08.339Z,100057.42
2019-04-28T11:56:41.570Z,100056.77
2019-04-28T11:59:11.444Z,100050.31
2019-04-28T12:01:42.416Z,100045.52
2019-04-28T12:04:14.397Z,100048.98
2019-04-28T12:06:45.121Z,100050.14
2019-04-28T12:09:46.743Z,100043.52
2019-04-28T12:12:26.104Z,100047.84
2019-04-28T12:15:04.947Z,100029.95
2019-04-28T12:17:46.638Z,100046.47
2019-04-28T12:20:22.606Z,100043.70
2019-04-28T12:22:53.247Z,100032.94
2019-04-28T12:25:23.905Z,100037.89
2019-04-28T12:27:56.114Z,100026.31
2019-04-28T12:30:26.705Z,100028.16
2019-04-28T12:32:57.555Z,100021.38
2019-04-28T12:35:28.119Z,100021.52
2019-04-28T12:37:58.806Z,100018.05
2019-04-28T12:40:29.547Z,100015.07
2019-04-28T12:43:00.138Z,100021.70
2019-04-28T12:45:35.310Z,100008.45
2019-04-28T12:48:03.471Z,100013.73
2019-04-28T12:50:39.575Z,100010.44
2019-04-28T12:53:11.440Z,100013.77
2019-04-28T12:55:42.301Z,100014.73
2019-04-28T12:58:13.038Z,100009.80
2019-04-28T13:01:15.090Z,100001.20
2019-04-28T13:04:01.890Z,100006.80
2019-04-28T13:06:32.810Z,100007.80
2019-04-28T13:09:04.229Z,100001.67
2019-04-28T13:11:38.051Z,99991.59
2019-04-28T13:14:08.585Z,99990.27
2019-04-28T13:16:39.493Z,99987.77
2019-04-28T13:19:10.199Z,99988.91
2019-04-28T13:21:40.896Z,99986.06
2019-04-28T13:24:12.797Z,99983.60
2019-04-28T13:26:43.701Z,99984.90
2019-04-28T13:29:14.581Z,99982.62
2019-04-28T13:31:45.156Z,99986.05
2019-04-28T13:34:18.151Z,99993.52
2019-04-28T13:36:48.966Z,99987.35
2019-04-28T13:39:26.603Z,99984.11
2019-04-28T13:41:57.542Z,99987.52
2019-04-28T13:44:46.054Z,99986.36
2019-04-28T13:47:16.821Z,99990.73
2019-04-28T13:49:53.773Z,99991.78
2019-04-28T13:52:24.476Z,99988.20
2019-04-28T13:55:00.839Z,99986.89
2019-04-28T13:57:31.691Z,99982.30
2019-04-28T14:00:04.426Z,99990.59
2019-04-28T14:02:53.973Z,99984.63
2019-04-28T14:05:42.816Z,99986.07
2019-04-28T14:08:14.755Z,99979.09
2019-04-28T14:10:45.386Z,99976.11
2019-04-28T14:13:16.234Z,99982.27
2019-04-28T14:15:48.601Z,99984.93
2019-04-28T14:18:19.486Z,99986.05
2019-04-28T14:20:50.083Z,99994.80
2019-04-28T14:23:22.256Z,99980.72
2019-04-28T14:25:53.078Z,99989.92
2019-04-28T14:28:24.122Z,99992.33
2019-04-28T14:30:54.829Z,99992.42
2019-04-28T14:33:25.429Z,99983.33
2019-04-28T14:35:56.000Z,99979.81
2019-04-28T14:38:26.468Z,99974.62
2019-04-28T14:41:17.146Z,99986.70
2019-04-28T14:43:47.889Z,99982.64
2019-04-28T14:46:20.273Z,99987.03
2019-04-28T14:48:51.060Z,99990.02
2019-04-28T14:51:22.000Z,99986.38
2019-04-28T14:53:53.682Z,99995.60
2019-04-28T14:56:24.816Z,100000.81
2019-04-28T14:58:55.574Z,100002.45
2019-04-28T15:01:48.351Z,99992.97
2019-04-28T15:04:29.654Z,99990.92
2019-04-28T15:07:04.889Z,99998.78
2019-04-28T15:09:57.845Z,100008.12
2019-04-28T15:12:28.462Z,100012.41
2019-04-28T15:14:59.109Z,100004.86
2019-04-28T15:17:30.057Z,100006.27
2019-04-28T15:20:01.084Z,100006.03
2019-04-28T15:22:34.462Z,100005.80
2019-04-28T15:25:06.428Z,100014.59
2019-04-28T15:27:37.475Z,100013.98
2019-04-28T15:30:08.353Z,100011.88
2019-04-28T15:32:39.334Z,100008.92
2019-04-28T15:35:10.165Z,100009.97
2019-04-28T15:37:42.279Z,100003.03
2019-04-28T15:40:13.816Z,99997.78
2019-04-28T15:42:44.705Z,100000.58
2019-04-28T15:45:17.458Z,100005.39
2019-04-28T15:47:48.175Z,99997.16
2019-04-28T15:50:19.704Z,99999.69
2019-04-28T15:52:51.873Z,99994.57
2019-04-28T15:55:28.478Z,100001.52
2019-04-28T15:58:00.822Z,99999.53
2019-04-28T16:00:31.440Z,100000.20
2019-04-28T16:03:02.116Z,99992.25
2019-04-28T16:05:32.851Z,99990.25
2019-04-28T16:08:04.763Z,99998.20
2019-04-28T16:10:36.991Z,100003.81
2019-04-28T16:13:08.598Z,100003.28
2019-04-28T16:15:40.269Z,99999.30
2019-04-28T16:18:10.998Z,100001.12
2019-04-28T16:20:41.857Z,99999.14
2019-04-28T16:23:12.388Z,99998.47
2019-04-28T16:25:43.085Z,99997.80
2019-04-28T16:28:13.939Z,100002.74
2019-04-28T16:30:44.714Z,99998.28
2019-04-28T16:33:16.577Z,99999.09
2019-04-28T16:35:47.168Z,100001.42
2019-04-28T16:38:19.071Z,99991.00
2019-04-28T16:41:04.863Z,99994.77
2019-04-28T16:43:57.742Z,99993.61
2019-04-28T16:46:28.401Z,99990.95
2019-04-28T16:48:59.270Z,99987.80
2019-04-28T16:51:30.447Z,99988.73
2019-04-28T16:54:01.580Z,99987.04
2019-04-28T16:56:55.348Z,99991.33
2019-04-28T16:59:51.309Z,99989.00
2019-04-28T17:02:40.665Z,99985.01
2019-04-28T17:05:12.431Z,99987.27
2019-04-28T17:07:52.345Z,99993.19
2019-04-28T17:10:15.734Z,100003.06
2019-04-28T17:12:47.196Z,100002.33
2019-04-28T17:15:17.962Z,100001.59
2019-04-28T17:17:48.857Z,100008.44
2019-04-28T17:20:20.339Z,100014.14
2019-04-28T17:22:51.020Z,100011.36
2019-04-28T17:25:21.840Z,100018.80
2019-04-28T17:27:52.953Z,100019.67
2019-04-28T17:30:23.739Z,100024.19
2019-04-28T17:32:54.631Z,100024.45
2019-04-28T17:35:25.636Z,100026.34
2019-04-28T17:38:06.354Z,100026.89
2019-04-28T17:40:30.086Z,100034.70
2019-04-28T17:43:00.986Z,100035.23
2019-04-28T17:45:33.744Z,100036.75
2019-04-28T17:48:13.903Z,100043.23
2019-04-28T17:50:45.389Z,100050.12
2019-04-28T17:53:16.481Z,100052.20
2019-04-28T17:55:47.264Z,100063.14
2019-04-28T17:58:17.873Z,100069.98
2019-04-28T18:01:11.593Z,100070.66
2019-04-28T18:03:52.643Z,100074.86
2019-04-28T18:06:24.747Z,100071.95
2019-04-28T18:08:55.767Z,100073.91
2019-04-28T18:11:26.816Z,100083.73
2019-04-28T18:13:57.440Z,100085.95
2019-04-28T18:16:53.147Z,100092.86
2019-04-28T18:19:24.318Z,100094.31
2019-04-28T18:21:55.105Z,100100.89
2019-04-28T18:24:25.987Z,100097.38
2019-04-28T18:26:56.907Z,100111.51
2019-04-28T18:29:27.840Z,100112.59
2019-04-28T18:32:35.435Z,100113.72
2019-04-28T18:35:15.893Z,100112.73
2019-04-28T18:38:03.982Z,100116.91
2019-04-28T18:41:03.270Z,100117.92
2019-04-28T18:43:52.838Z,100128.87
2019-04-28T18:46:28.780Z,100129.28
2019-04-28T18:49:01.152Z,100130.58
2019-04-28T18:51:32.461Z,100124.11
2019-04-28T18:54:03.335Z,100122.94
2019-04-28T18:56:34.089Z,100128.97
2019-04-28T18:59:04.806Z,100123.05
2019-04-28T19:02:00.434Z,100127.47
2019-04-28T19:04:31.298Z,100123.25
2019-04-28T19:07:05.179Z,100122.36
2019-04-28T19:09:59.412Z,100120.02
2019-04-28T19:12:40.762Z,100121.40
2019-04-28T19:15:40.175Z,100126.59
2019-04-28T19:18:19.499Z,100135.26
2019-04-28T19:20:50.506Z,100136.14
2019-04-28T19:23:21.284Z,100134.55
2019-04-28T19:25:51.939Z,100139.75
2019-04-28T19:28:22.910Z,100139.89
2019-04-28T19:30:53.729Z,100144.79
2019-04-28T19:33:24.537Z,100136.56
2019-04-28T19:35:55.621Z,100136.48
2019-04-28T19:38:26.318Z,100139.31
2019-04-28T19:40:59.357Z,100139.39
2019-04-28T19:43:31.624Z,100132.66
2019-04-28T19:46:05.347Z,100125.39
2019-04-28T19:48:37.389Z,100123.67
2019-04-28T19:51:11.761Z,100129.50
2019-04-28T19:53:42.900Z,100136.62
2019-04-28T19:56:24.295Z,100131.36
2019-04-28T19:59:03.639Z,100134.88
2019-04-28T20:01:34.485Z,100123.69
2019-04-28T20:04:05.300Z,100124.49
2019-04-28T20:06:36.292Z,100127.49
2019-04-28T20:09:07.935Z,100131.36
2019-04-28T20:11:38.822Z,100141.55
2019-04-28T20:14:09.858Z,100140.17
2019-04-28T20:16:41.911Z,100144.45
2019-04-28T20:19:12.642Z,100145.86
2019-04-28T20:21:43.438Z,100153.80
2019-04-28T20:24:14.458Z,100155.27
2019-04-28T20:26:45.290Z,100157.05
2019-04-28T20:29:16.199Z,100154.23
2019-04-28T20:31:46.955Z,100160.86
2019-04-28T20:34:18.075Z,100162.12
2019-04-28T20:37:08.446Z,100162.64
2019-04-28T20:39:39.220Z,100151.16
2019-04-28T20:42:27.338Z,100149.81
2019-04-28T20:44:58.283Z,100143.92
2019-04-28T20:47:28.954Z,100140.41
2019-04-28T20:49:59.895Z,100145.46
2019-04-28T20:52:31.552Z,100141.09
2019-04-28T20:55:02.192Z,100145.55
2019-04-28T20:57:32.830Z,100151.08
2019-04-28T21:00:05.184Z,100138.81
2019-04-28T21:02:35.978Z,100147.44
2019-04-28T21:05:07.095Z,100145.92
2019-04-28T21:07:37.923Z,100147.58
2019-04-28T21:10:09.061Z,100140.97
2019-04-28T21:12:40.982Z,100136.63
2019-04-28T21:15:11.773Z,100138.16
2019-04-28T21:17:42.619Z,100146.05
2019-04-28T21:20:13.457Z,100144.80
2019-04-28T21:22:45.535Z,100144.89
2019-04-28T21:25:16.463Z,100141.99
2019-04-28T21:27:46.992Z,100136.88
2019-04-28T21:30:17.905Z,100144.42
2019-04-28T21:32:49.085Z,100144.76
2019-04-28T21:35:19.776Z,100152.64
2019-04-28T21:37:51.099Z,100142.88
2019-04-28T21:40:22.170Z,100141.84
2019-04-28T21:43:11.717Z,100140.66
2019-04-28T21:46:04.263Z,100141.50
2019-04-28T21:48:41.433Z,100144.66
2019-04-28T21:51:12.436Z,100144.82
2019-04-28T21:53:43.236Z,100143.86
2019-04-28T21:56:13.895Z,100137.58
2019-04-28T21:58:45.106Z,100083.53
2019-04-28T22:01:19.392Z,100139.11
2019-04-28T22:03:50.048Z,100131.50
2019-04-28T22:06:20.746Z,100130.35
2019-04-28T22:08:51.503Z,100133.31
2019-04-28T22:11:22.312Z,100126.31
2019-04-28T22:13:52.987Z,100121.41
2019-04-28T22:16:24.017Z,100116.77
2019-04-28T22:18:54.751Z,100112.90
2019-04-28T22:21:25.476Z,100113.84
2019-04-28T22:24:24.389Z,100116.20
2019-04-28T22:26:55.994Z,100109.56
2019-04-28T22:29:27.419Z,100113.64
2019-04-28T22:31:59.306Z,100122.77
2019-04-28T22:34:29.869Z,100124.30
2019-04-28T22:37:00.467Z,100126.67
2019-04-28T22:39:31.400Z,100130.89
2019-04-28T22:42:02.304Z,100134.14
2019-04-28T22:44:32.926Z,100130.62
2019-04-28T22:47:03.701Z,100133.59
2019-04-28T22:49:34.284Z,100120.49
2019-04-28T22:52:04.949Z,100118.77
2019-04-28T22:54:54.837Z,100125.00
2019-04-28T22:57:47.273Z,100127.35
2019-04-28T23:00:38.383Z,100122.78
2019-04-28T23:03:10.603Z,100123.48
2019-04-28T23:05:41.684Z,100121.60
2019-04-28T23:08:12.553Z,100119.59
2019-04-28T23:10:44.482Z,100120.57
2019-04-28T23:13:15.125Z,100116.41
2019-04-28T23:15:45.721Z,100117.81
2019-04-28T23:18:16.725Z,100121.20
2019-04-28T23:20:50.381Z,100126.38
2019-04-28T23:23:21.101Z,100120.63
2019-04-28T23:25:51.956Z,100119.84
2019-04-28T23:28:22.727Z,100129.46
2019-04-28T23:30:53.480Z,100124.75
2019-04-28T23:33:24.141Z,100127.53
2019-04-28T23:35:54.951Z,100126.81
2019-04-28T23:38:25.966Z,100126.05
2019-04-28T23:41:07.291Z,100121.45
2019-04-28T23:43:37.873Z,100122.26
2019-04-28T23:46:08.369Z,100113.91
2019-04-28T23:48:40.225Z,100108.09
2019-04-28T23:51:29.019Z,100110.73
2019-04-28T23:54:04.762Z,100107.48
2019-04-28T23:56:35.711Z,100105.95
2019-04-28T23:59:06.639Z,100108.94
